sensor_id;sensor_type;location;lat;lon;timestamp;P1;durP1;ratioP1;P2;durP2;ratioP2
13079;SDS011;6606;49.154;9.280;2023-04-24T00:02:08;1.73;;;1.00;;
13079;SDS011;6606;49.154;9.280;2023-04-24T00:04:51;1.10;;;0.90;;
13079;SDS011;6606;49.154;9.280;2023-04-24T00:07:33;1.50;;;1.00;;
13079;SDS011;6606;49.154;9.280;2023-04-24T00:10:15;1.00;;;0.70;;
13079;SDS011;6606;49.154;9.280;2023-04-24T00:12:57;2.57;;;0.83;;
13079;SDS011;6606;49.154;9.280;2023-04-24T00:15:41;2.50;;;0.90;;
13079;SDS011;6606;49.154;9.280;2023-04-24T00:18:23;2.03;;;1.00;;
13079;SDS011;6606;49.154;9.280;2023-04-24T00:21:05;1.27;;;0.97;;
13079;SDS011;6606;49.154;9.280;2023-04-24T00:23:47;2.33;;;1.10;;
13079;SDS011;6606;49.154;9.280;2023-04-24T00:26:29;1.83;;;0.93;;
13079;SDS011;6606;49.154;9.280;2023-04-24T00:29:11;1.37;;;1.00;;
13079;SDS011;6606;49.154;9.280;2023-04-24T00:31:54;2.00;;;0.90;;
13079;SDS011;6606;49.154;9.280;2023-04-24T00:34:36;2.20;;;1.00;;
13079;SDS011;6606;49.154;9.280;2023-04-24T00:37:18;1.30;;;0.90;;
13079;SDS011;6606;49.154;9.280;2023-04-24T00:40:00;1.53;;;1.00;;
13079;SDS011;6606;49.154;9.280;2023-04-24T00:42:43;1.10;;;0.83;;
13079;SDS011;6606;49.154;9.280;2023-04-24T00:45:25;2.80;;;0.90;;
13079;SDS011;6606;49.154;9.280;2023-04-24T00:48:09;3.23;;;1.00;;
13079;SDS011;6606;49.154;9.280;2023-04-24T00:50:51;2.03;;;0.90;;
13079;SDS011;6606;49.154;9.280;2023-04-24T00:53:32;3.17;;;1.27;;
13079;SDS011;6606;49.154;9.280;2023-04-24T00:56:14;3.37;;;1.07;;
13079;SDS011;6606;49.154;9.280;2023-04-24T00:58:56;2.63;;;1.10;;
13079;SDS011;6606;49.154;9.280;2023-04-24T01:01:39;2.03;;;0.90;;
13079;SDS011;6606;49.154;9.280;2023-04-24T01:04:23;2.43;;;1.00;;
13079;SDS011;6606;49.154;9.280;2023-04-24T01:07:06;1.73;;;1.00;;
13079;SDS011;6606;49.154;9.280;2023-04-24T01:09:50;1.60;;;0.90;;
13079;SDS011;6606;49.154;9.280;2023-04-24T01:12:32;3.03;;;1.17;;
13079;SDS011;6606;49.154;9.280;2023-04-24T01:15:14;1.10;;;0.90;;
13079;SDS011;6606;49.154;9.280;2023-04-24T01:17:56;2.73;;;1.20;;
13079;SDS011;6606;49.154;9.280;2023-04-24T01:20:44;1.67;;;0.90;;
13079;SDS011;6606;49.154;9.280;2023-04-24T01:23:29;1.37;;;0.90;;
13079;SDS011;6606;49.154;9.280;2023-04-24T01:26:11;1.93;;;1.00;;
13079;SDS011;6606;49.154;9.280;2023-04-24T01:28:53;1.47;;;0.90;;
13079;SDS011;6606;49.154;9.280;2023-04-24T01:31:35;1.67;;;1.00;;
13079;SDS011;6606;49.154;9.280;2023-04-24T01:34:18;1.23;;;0.90;;
13079;SDS011;6606;49.154;9.280;2023-04-24T01:37:00;2.00;;;1.00;;
13079;SDS011;6606;49.154;9.280;2023-04-24T01:39:44;2.77;;;1.00;;
13079;SDS011;6606;49.154;9.280;2023-04-24T01:42:26;1.10;;;0.90;;
13079;SDS011;6606;49.154;9.280;2023-04-24T01:45:10;1.77;;;1.00;;
13079;SDS011;6606;49.154;9.280;2023-04-24T01:47:53;4.10;;;1.10;;
13079;SDS011;6606;49.154;9.280;2023-04-24T01:50:37;4.80;;;1.33;;
13079;SDS011;6606;49.154;9.280;2023-04-24T01:53:19;1.70;;;1.00;;
13079;SDS011;6606;49.154;9.280;2023-04-24T01:56:03;1.00;;;0.83;;
13079;SDS011;6606;49.154;9.280;2023-04-24T01:58:45;2.07;;;0.90;;
13079;SDS011;6606;49.154;9.280;2023-04-24T02:01:31;1.27;;;0.97;;
13079;SDS011;6606;49.154;9.280;2023-04-24T02:04:16;1.40;;;1.00;;
13079;SDS011;6606;49.154;9.280;2023-04-24T02:06:57;2.53;;;1.07;;
13079;SDS011;6606;49.154;9.280;2023-04-24T02:09:39;1.90;;;1.00;;
13079;SDS011;6606;49.154;9.280;2023-04-24T02:12:23;2.63;;;0.93;;
13079;SDS011;6606;49.154;9.280;2023-04-24T02:15:05;2.17;;;0.90;;
13079;SDS011;6606;49.154;9.280;2023-04-24T02:17:51;3.67;;;1.00;;
13079;SDS011;6606;49.154;9.280;2023-04-24T02:20:33;3.27;;;1.13;;
13079;SDS011;6606;49.154;9.280;2023-04-24T02:23:15;2.43;;;1.00;;
13079;SDS011;6606;49.154;9.280;2023-04-24T02:25:59;1.03;;;0.90;;
13079;SDS011;6606;49.154;9.280;2023-04-24T02:28:43;3.07;;;1.10;;
13079;SDS011;6606;49.154;9.280;2023-04-24T02:31:25;5.23;;;1.03;;
13079;SDS011;6606;49.154;9.280;2023-04-24T02:34:07;1.27;;;0.80;;
13079;SDS011;6606;49.154;9.280;2023-04-24T02:36:49;1.33;;;0.80;;
13079;SDS011;6606;49.154;9.280;2023-04-24T02:39:31;2.73;;;1.00;;
13079;SDS011;6606;49.154;9.280;2023-04-24T02:42:13;1.43;;;0.90;;
13079;SDS011;6606;49.154;9.280;2023-04-24T02:44:57;1.43;;;0.90;;
13079;SDS011;6606;49.154;9.280;2023-04-24T02:47:39;1.67;;;1.00;;
13079;SDS011;6606;49.154;9.280;2023-04-24T02:50:21;1.30;;;0.70;;
13079;SDS011;6606;49.154;9.280;2023-04-24T02:53:03;3.57;;;1.00;;
13079;SDS011;6606;49.154;9.280;2023-04-24T02:55:45;1.90;;;0.90;;
13079;SDS011;6606;49.154;9.280;2023-04-24T02:58:27;2.03;;;1.00;;
13079;SDS011;6606;49.154;9.280;2023-04-24T03:01:10;1.60;;;0.77;;
13079;SDS011;6606;49.154;9.280;2023-04-24T03:03:53;1.83;;;0.80;;
13079;SDS011;6606;49.154;9.280;2023-04-24T03:06:35;2.13;;;1.07;;
13079;SDS011;6606;49.154;9.280;2023-04-24T03:12:19;2.17;;;0.80;;
13079;SDS011;6606;49.154;9.280;2023-04-24T03:15:04;0.87;;;0.87;;
13079;SDS011;6606;49.154;9.280;2023-04-24T03:17:52;1.37;;;0.90;;
13079;SDS011;6606;49.154;9.280;2023-04-24T03:20:34;1.57;;;0.90;;
13079;SDS011;6606;49.154;9.280;2023-04-24T03:23:17;2.93;;;0.93;;
13079;SDS011;6606;49.154;9.280;2023-04-24T03:25:59;2.47;;;0.93;;
13079;SDS011;6606;49.154;9.280;2023-04-24T03:28:42;1.93;;;0.83;;
13079;SDS011;6606;49.154;9.280;2023-04-24T03:31:25;2.27;;;0.83;;
13079;SDS011;6606;49.154;9.280;2023-04-24T03:34:08;1.20;;;0.90;;
13079;SDS011;6606;49.154;9.280;2023-04-24T03:36:51;2.23;;;1.03;;
13079;SDS011;6606;49.154;9.280;2023-04-24T03:39:34;1.70;;;0.83;;
13079;SDS011;6606;49.154;9.280;2023-04-24T03:42:16;1.97;;;1.00;;
13079;SDS011;6606;49.154;9.280;2023-04-24T03:45:08;2.43;;;0.90;;
13079;SDS011;6606;49.154;9.280;2023-04-24T03:47:54;0.87;;;0.80;;
13079;SDS011;6606;49.154;9.280;2023-04-24T03:50:38;1.37;;;0.80;;
13079;SDS011;6606;49.154;9.280;2023-04-24T03:53:23;2.10;;;1.00;;
13079;SDS011;6606;49.154;9.280;2023-04-24T03:56:05;2.00;;;0.90;;
13079;SDS011;6606;49.154;9.280;2023-04-24T03:58:49;1.40;;;0.90;;
13079;SDS011;6606;49.154;9.280;2023-04-24T04:01:30;1.83;;;1.00;;
13079;SDS011;6606;49.154;9.280;2023-04-24T04:04:20;2.43;;;1.00;;
13079;SDS011;6606;49.154;9.280;2023-04-24T04:07:03;1.43;;;0.80;;
13079;SDS011;6606;49.154;9.280;2023-04-24T04:09:45;1.43;;;0.67;;
13079;SDS011;6606;49.154;9.280;2023-04-24T04:12:27;1.87;;;0.90;;
13079;SDS011;6606;49.154;9.280;2023-04-24T04:15:11;2.70;;;0.87;;
13079;SDS011;6606;49.154;9.280;2023-04-24T04:17:57;1.77;;;0.70;;
13079;SDS011;6606;49.154;9.280;2023-04-24T04:20:42;1.47;;;0.83;;
13079;SDS011;6606;49.154;9.280;2023-04-24T04:23:27;3.30;;;1.00;;
13079;SDS011;6606;49.154;9.280;2023-04-24T04:26:20;2.53;;;0.83;;
13079;SDS011;6606;49.154;9.280;2023-04-24T04:29:31;1.77;;;0.90;;
13079;SDS011;6606;49.154;9.280;2023-04-24T04:32:16;2.70;;;1.10;;
13079;SDS011;6606;49.154;9.280;2023-04-24T04:34:58;3.00;;;1.00;;
13079;SDS011;6606;49.154;9.280;2023-04-24T04:37:44;1.77;;;1.03;;
13079;SDS011;6606;49.154;9.280;2023-04-24T04:40:35;1.43;;;0.90;;
13079;SDS011;6606;49.154;9.280;2023-04-24T04:43:19;3.93;;;1.37;;
13079;SDS011;6606;49.154;9.280;2023-04-24T04:46:05;1.77;;;1.00;;
13079;SDS011;6606;49.154;9.280;2023-04-24T04:49:08;2.20;;;1.70;;
13079;SDS011;6606;49.154;9.280;2023-04-24T04:51:51;1.83;;;1.27;;
13079;SDS011;6606;49.154;9.280;2023-04-24T04:54:33;2.00;;;1.13;;
13079;SDS011;6606;49.154;9.280;2023-04-24T04:57:17;3.23;;;1.40;;
13079;SDS011;6606;49.154;9.280;2023-04-24T04:59:59;1.60;;;1.40;;
13079;SDS011;6606;49.154;9.280;2023-04-24T05:02:54;2.40;;;1.47;;
13079;SDS011;6606;49.154;9.280;2023-04-24T05:05:37;3.77;;;1.93;;
13079;SDS011;6606;49.154;9.280;2023-04-24T05:08:21;1.70;;;1.53;;
13079;SDS011;6606;49.154;9.280;2023-04-24T05:11:03;4.00;;;1.90;;
13079;SDS011;6606;49.154;9.280;2023-04-24T05:13:48;7.50;;;2.00;;
13079;SDS011;6606;49.154;9.280;2023-04-24T05:16:38;13.13;;;2.70;;
13079;SDS011;6606;49.154;9.280;2023-04-24T05:19:22;16.83;;;2.63;;
13079;SDS011;6606;49.154;9.280;2023-04-24T05:22:04;2.57;;;1.83;;
13079;SDS011;6606;49.154;9.280;2023-04-24T05:24:49;2.27;;;1.60;;
13079;SDS011;6606;49.154;9.280;2023-04-24T05:27:54;2.10;;;1.90;;
13079;SDS011;6606;49.154;9.280;2023-04-24T05:30:38;3.57;;;2.10;;
13079;SDS011;6606;49.154;9.280;2023-04-24T05:33:21;5.70;;;2.10;;
13079;SDS011;6606;49.154;9.280;2023-04-24T05:36:03;2.83;;;2.10;;
13079;SDS011;6606;49.154;9.280;2023-04-24T05:38:46;3.20;;;1.90;;
13079;SDS011;6606;49.154;9.280;2023-04-24T05:41:28;2.17;;;1.90;;
13079;SDS011;6606;49.154;9.280;2023-04-24T05:44:10;3.67;;;2.07;;
13079;SDS011;6606;49.154;9.280;2023-04-24T05:46:54;3.03;;;1.90;;
13079;SDS011;6606;49.154;9.280;2023-04-24T05:49:37;4.33;;;1.97;;
13079;SDS011;6606;49.154;9.280;2023-04-24T05:52:19;2.33;;;2.00;;
13079;SDS011;6606;49.154;9.280;2023-04-24T05:55:02;2.53;;;2.10;;
13079;SDS011;6606;49.154;9.280;2023-04-24T05:57:47;2.67;;;1.90;;
13079;SDS011;6606;49.154;9.280;2023-04-24T06:00:29;2.57;;;1.90;;
13079;SDS011;6606;49.154;9.280;2023-04-24T06:03:20;2.20;;;2.00;;
13079;SDS011;6606;49.154;9.280;2023-04-24T06:06:02;2.13;;;1.90;;
13079;SDS011;6606;49.154;9.280;2023-04-24T06:08:45;2.63;;;2.07;;
13079;SDS011;6606;49.154;9.280;2023-04-24T06:11:27;2.50;;;2.10;;
13079;SDS011;6606;49.154;9.280;2023-04-24T06:14:10;4.83;;;2.23;;
13079;SDS011;6606;49.154;9.280;2023-04-24T06:16:51;3.07;;;2.10;;
13079;SDS011;6606;49.154;9.280;2023-04-24T06:19:45;2.90;;;2.07;;
13079;SDS011;6606;49.154;9.280;2023-04-24T06:22:28;2.50;;;2.10;;
13079;SDS011;6606;49.154;9.280;2023-04-24T06:25:09;4.30;;;2.30;;
13079;SDS011;6606;49.154;9.280;2023-04-24T06:27:51;4.83;;;2.70;;
13079;SDS011;6606;49.154;9.280;2023-04-24T06:30:33;2.70;;;2.03;;
13079;SDS011;6606;49.154;9.280;2023-04-24T06:33:15;2.70;;;2.20;;
13079;SDS011;6606;49.154;9.280;2023-04-24T06:35:58;2.50;;;1.83;;
13079;SDS011;6606;49.154;9.280;2023-04-24T06:38:40;8.87;;;2.70;;
13079;SDS011;6606;49.154;9.280;2023-04-24T06:41:22;4.43;;;2.17;;
13079;SDS011;6606;49.154;9.280;2023-04-24T06:44:04;2.47;;;2.27;;
13079;SDS011;6606;49.154;9.280;2023-04-24T06:46:46;2.83;;;1.97;;
13079;SDS011;6606;49.154;9.280;2023-04-24T06:49:27;2.83;;;2.03;;
13079;SDS011;6606;49.154;9.280;2023-04-24T06:52:11;4.17;;;2.20;;
13079;SDS011;6606;49.154;9.280;2023-04-24T06:54:58;3.33;;;2.30;;
13079;SDS011;6606;49.154;9.280;2023-04-24T06:57:41;3.67;;;2.43;;
13079;SDS011;6606;49.154;9.280;2023-04-24T07:00:24;4.03;;;2.10;;
13079;SDS011;6606;49.154;9.280;2023-04-24T07:03:05;3.00;;;2.10;;
13079;SDS011;6606;49.154;9.280;2023-04-24T07:05:47;2.63;;;2.20;;
13079;SDS011;6606;49.154;9.280;2023-04-24T07:08:31;3.23;;;2.20;;
13079;SDS011;6606;49.154;9.280;2023-04-24T07:11:13;4.33;;;2.67;;
13079;SDS011;6606;49.154;9.280;2023-04-24T07:13:54;3.60;;;2.17;;
13079;SDS011;6606;49.154;9.280;2023-04-24T07:16:36;3.33;;;2.17;;
13079;SDS011;6606;49.154;9.280;2023-04-24T07:19:18;4.77;;;1.90;;
13079;SDS011;6606;49.154;9.280;2023-04-24T07:22:00;4.27;;;1.80;;
13079;SDS011;6606;49.154;9.280;2023-04-24T07:24:44;4.07;;;2.08;;
13079;SDS011;6606;49.154;9.280;2023-04-24T07:27:26;2.95;;;1.90;;
13079;SDS011;6606;49.154;9.280;2023-04-24T07:30:08;4.30;;;2.20;;
13079;SDS011;6606;49.154;9.280;2023-04-24T07:32:51;3.88;;;1.80;;
13079;SDS011;6606;49.154;9.280;2023-04-24T07:35:32;6.30;;;1.77;;
13079;SDS011;6606;49.154;9.280;2023-04-24T07:38:15;4.70;;;1.65;;
13079;SDS011;6606;49.154;9.280;2023-04-24T07:40:58;5.22;;;1.80;;
13079;SDS011;6606;49.154;9.280;2023-04-24T07:43:39;7.57;;;1.75;;
13079;SDS011;6606;49.154;9.280;2023-04-24T07:46:21;2.60;;;1.50;;
13079;SDS011;6606;49.154;9.280;2023-04-24T07:49:04;3.33;;;1.42;;
13079;SDS011;6606;49.154;9.280;2023-04-24T07:51:46;3.38;;;1.63;;
13079;SDS011;6606;49.154;9.280;2023-04-24T07:54:28;2.15;;;1.50;;
13079;SDS011;6606;49.154;9.280;2023-04-24T07:57:11;3.17;;;1.65;;
13079;SDS011;6606;49.154;9.280;2023-04-24T07:59:54;3.30;;;1.50;;
13079;SDS011;6606;49.154;9.280;2023-04-24T08:02:36;2.55;;;1.60;;
13079;SDS011;6606;49.154;9.280;2023-04-24T08:05:19;4.30;;;1.88;;
13079;SDS011;6606;49.154;9.280;2023-04-24T08:08:01;3.90;;;1.85;;
13079;SDS011;6606;49.154;9.280;2023-04-24T08:10:43;1.33;;;1.23;;
13079;SDS011;6606;49.154;9.280;2023-04-24T08:13:26;2.17;;;1.50;;
13079;SDS011;6606;49.154;9.280;2023-04-24T08:16:08;2.25;;;1.88;;
13079;SDS011;6606;49.154;9.280;2023-04-24T08:18:50;4.73;;;1.63;;
13079;SDS011;6606;49.154;9.280;2023-04-24T08:21:32;3.00;;;1.60;;
13079;SDS011;6606;49.154;9.280;2023-04-24T08:24:14;2.88;;;1.65;;
13079;SDS011;6606;49.154;9.280;2023-04-24T08:26:59;2.80;;;1.30;;
13079;SDS011;6606;49.154;9.280;2023-04-24T08:29:42;3.30;;;1.57;;
13079;SDS011;6606;49.154;9.280;2023-04-24T08:32:24;2.03;;;1.30;;
13079;SDS011;6606;49.154;9.280;2023-04-24T08:35:08;2.47;;;1.40;;
13079;SDS011;6606;49.154;9.280;2023-04-24T08:37:51;2.13;;;1.33;;
13079;SDS011;6606;49.154;9.280;2023-04-24T08:40:34;2.47;;;1.47;;
13079;SDS011;6606;49.154;9.280;2023-04-24T08:43:16;2.93;;;1.40;;
13079;SDS011;6606;49.154;9.280;2023-04-24T08:46:00;2.13;;;1.37;;
13079;SDS011;6606;49.154;9.280;2023-04-24T08:48:41;5.90;;;1.50;;
13079;SDS011;6606;49.154;9.280;2023-04-24T08:51:23;3.33;;;1.40;;
13079;SDS011;6606;49.154;9.280;2023-04-24T08:54:07;2.17;;;1.33;;
13079;SDS011;6606;49.154;9.280;2023-04-24T08:56:49;2.97;;;1.60;;
13079;SDS011;6606;49.154;9.280;2023-04-24T08:59:34;4.20;;;1.43;;
13079;SDS011;6606;49.154;9.280;2023-04-24T09:02:18;2.87;;;1.47;;
13079;SDS011;6606;49.154;9.280;2023-04-24T09:05:00;4.50;;;1.40;;
13079;SDS011;6606;49.154;9.280;2023-04-24T09:07:43;1.63;;;1.43;;
13079;SDS011;6606;49.154;9.280;2023-04-24T09:10:26;2.43;;;1.40;;
13079;SDS011;6606;49.154;9.280;2023-04-24T09:13:10;3.07;;;1.40;;
13079;SDS011;6606;49.154;9.280;2023-04-24T09:15:52;2.80;;;1.60;;
13079;SDS011;6606;49.154;9.280;2023-04-24T09:18:35;2.37;;;1.50;;
13079;SDS011;6606;49.154;9.280;2023-04-24T09:21:18;1.70;;;1.23;;
13079;SDS011;6606;49.154;9.280;2023-04-24T09:24:03;1.63;;;1.20;;
13079;SDS011;6606;49.154;9.280;2023-04-24T09:26:45;1.00;;;0.90;;
13079;SDS011;6606;49.154;9.280;2023-04-24T09:29:27;4.40;;;1.10;;
13079;SDS011;6606;49.154;9.280;2023-04-24T09:32:19;4.40;;;1.10;;
13079;SDS011;6606;49.154;9.280;2023-04-24T09:35:10;1.83;;;1.00;;
13079;SDS011;6606;49.154;9.280;2023-04-24T09:37:53;2.23;;;1.20;;
13079;SDS011;6606;49.154;9.280;2023-04-24T09:40:38;1.47;;;1.10;;
13079;SDS011;6606;49.154;9.280;2023-04-24T09:43:21;2.93;;;1.00;;
13079;SDS011;6606;49.154;9.280;2023-04-24T09:46:04;2.40;;;0.90;;
13079;SDS011;6606;49.154;9.280;2023-04-24T09:48:49;1.20;;;0.90;;
13079;SDS011;6606;49.154;9.280;2023-04-24T09:51:36;3.33;;;1.10;;
13079;SDS011;6606;49.154;9.280;2023-04-24T09:54:19;2.83;;;0.90;;
13079;SDS011;6606;49.154;9.280;2023-04-24T09:57:02;1.77;;;0.93;;
13079;SDS011;6606;49.154;9.280;2023-04-24T09:59:45;1.40;;;0.90;;
13079;SDS011;6606;49.154;9.280;2023-04-24T10:02:27;1.40;;;1.00;;
13079;SDS011;6606;49.154;9.280;2023-04-24T10:05:13;2.63;;;1.10;;
13079;SDS011;6606;49.154;9.280;2023-04-24T10:07:58;2.20;;;1.40;;
13079;SDS011;6606;49.154;9.280;2023-04-24T10:10:42;2.07;;;1.33;;
13079;SDS011;6606;49.154;9.280;2023-04-24T10:13:25;2.27;;;1.40;;
13079;SDS011;6606;49.154;9.280;2023-04-24T10:16:07;3.17;;;1.53;;
13079;SDS011;6606;49.154;9.280;2023-04-24T10:18:49;3.93;;;1.70;;
13079;SDS011;6606;49.154;9.280;2023-04-24T10:21:32;4.37;;;2.20;;
13079;SDS011;6606;49.154;9.280;2023-04-24T10:24:17;3.27;;;1.70;;
13079;SDS011;6606;49.154;9.280;2023-04-24T10:27:00;2.87;;;1.70;;
13079;SDS011;6606;49.154;9.280;2023-04-24T10:29:43;4.17;;;1.83;;
13079;SDS011;6606;49.154;9.280;2023-04-24T10:32:26;2.13;;;1.93;;
13079;SDS011;6606;49.154;9.280;2023-04-24T10:35:08;3.30;;;1.90;;
13079;SDS011;6606;49.154;9.280;2023-04-24T10:37:54;5.57;;;3.57;;
13079;SDS011;6606;49.154;9.280;2023-04-24T10:40:41;2.60;;;2.20;;
13079;SDS011;6606;49.154;9.280;2023-04-24T10:43:23;3.63;;;2.40;;
13079;SDS011;6606;49.154;9.280;2023-04-24T10:46:05;2.80;;;2.20;;
13079;SDS011;6606;49.154;9.280;2023-04-24T10:48:52;3.20;;;1.97;;
13079;SDS011;6606;49.154;9.280;2023-04-24T10:51:45;3.10;;;2.40;;
13079;SDS011;6606;49.154;9.280;2023-04-24T10:54:28;3.37;;;2.40;;
13079;SDS011;6606;49.154;9.280;2023-04-24T10:57:28;2.83;;;2.07;;
13079;SDS011;6606;49.154;9.280;2023-04-24T11:06:14;2.03;;;1.87;;
13079;SDS011;6606;49.154;9.280;2023-04-24T11:08:58;2.50;;;2.10;;
13079;SDS011;6606;49.154;9.280;2023-04-24T11:11:45;2.37;;;2.13;;
13079;SDS011;6606;49.154;9.280;2023-04-24T11:14:29;3.60;;;2.03;;
13079;SDS011;6606;49.154;9.280;2023-04-24T11:17:26;2.53;;;2.20;;
13079;SDS011;6606;49.154;9.280;2023-04-24T11:20:10;4.20;;;2.10;;
13079;SDS011;6606;49.154;9.280;2023-04-24T11:22:53;2.97;;;2.00;;
13079;SDS011;6606;49.154;9.280;2023-04-24T11:25:37;4.40;;;2.00;;
13079;SDS011;6606;49.154;9.280;2023-04-24T11:28:19;3.20;;;2.10;;
13079;SDS011;6606;49.154;9.280;2023-04-24T11:34:18;3.90;;;2.00;;
13079;SDS011;6606;49.154;9.280;2023-04-24T11:37:00;5.10;;;2.03;;
13079;SDS011;6606;49.154;9.280;2023-04-24T11:39:42;4.83;;;2.47;;
13079;SDS011;6606;49.154;9.280;2023-04-24T11:42:24;3.87;;;3.03;;
13079;SDS011;6606;49.154;9.280;2023-04-24T11:45:07;3.60;;;3.20;;
13079;SDS011;6606;49.154;9.280;2023-04-24T11:47:52;6.60;;;3.13;;
13079;SDS011;6606;49.154;9.280;2023-04-24T11:50:34;5.37;;;3.37;;
13079;SDS011;6606;49.154;9.280;2023-04-24T11:53:18;4.03;;;3.10;;
13079;SDS011;6606;49.154;9.280;2023-04-24T11:56:02;5.93;;;2.77;;
13079;SDS011;6606;49.154;9.280;2023-04-24T11:58:44;3.67;;;3.00;;
13079;SDS011;6606;49.154;9.280;2023-04-24T12:01:26;4.00;;;2.80;;
13079;SDS011;6606;49.154;9.280;2023-04-24T12:04:10;2.80;;;2.60;;
13079;SDS011;6606;49.154;9.280;2023-04-24T12:07:01;4.63;;;3.07;;
13079;SDS011;6606;49.154;9.280;2023-04-24T12:09:44;3.60;;;3.10;;
13079;SDS011;6606;49.154;9.280;2023-04-24T12:12:27;6.20;;;2.80;;
13079;SDS011;6606;49.154;9.280;2023-04-24T12:15:09;2.67;;;2.43;;
13079;SDS011;6606;49.154;9.280;2023-04-24T12:17:53;4.90;;;3.10;;
13079;SDS011;6606;49.154;9.280;2023-04-24T12:20:37;3.13;;;2.13;;
13079;SDS011;6606;49.154;9.280;2023-04-24T12:23:32;3.10;;;2.00;;
13079;SDS011;6606;49.154;9.280;2023-04-24T12:26:16;2.50;;;2.00;;
13079;SDS011;6606;49.154;9.280;2023-04-24T12:29:01;2.63;;;2.30;;
13079;SDS011;6606;49.154;9.280;2023-04-24T12:31:44;2.97;;;2.50;;
13079;SDS011;6606;49.154;9.280;2023-04-24T12:34:26;3.67;;;2.50;;
13079;SDS011;6606;49.154;9.280;2023-04-24T12:37:11;6.07;;;2.50;;
13079;SDS011;6606;49.154;9.280;2023-04-24T12:39:59;3.43;;;2.60;;
13079;SDS011;6606;49.154;9.280;2023-04-24T12:42:43;5.47;;;2.60;;
13079;SDS011;6606;49.154;9.280;2023-04-24T12:45:26;3.27;;;2.53;;
13079;SDS011;6606;49.154;9.280;2023-04-24T12:48:08;3.33;;;2.70;;
13079;SDS011;6606;49.154;9.280;2023-04-24T12:50:49;3.07;;;2.57;;
13079;SDS011;6606;49.154;9.280;2023-04-24T12:53:33;4.53;;;2.40;;
13079;SDS011;6606;49.154;9.280;2023-04-24T12:56:15;3.00;;;2.50;;
13079;SDS011;6606;49.154;9.280;2023-04-24T12:58:57;3.53;;;2.57;;
13079;SDS011;6606;49.154;9.280;2023-04-24T13:01:39;3.10;;;2.50;;
13079;SDS011;6606;49.154;9.280;2023-04-24T13:04:20;5.30;;;2.40;;
13079;SDS011;6606;49.154;9.280;2023-04-24T13:07:02;3.97;;;2.23;;
13079;SDS011;6606;49.154;9.280;2023-04-24T13:09:47;2.20;;;2.00;;
13079;SDS011;6606;49.154;9.280;2023-04-24T13:12:32;2.53;;;2.22;;
13079;SDS011;6606;49.154;9.280;2023-04-24T13:15:14;3.30;;;2.08;;
13079;SDS011;6606;49.154;9.280;2023-04-24T13:17:56;4.03;;;2.33;;
13079;SDS011;6606;49.154;9.280;2023-04-24T13:20:38;2.40;;;2.20;;
13079;SDS011;6606;49.154;9.280;2023-04-24T13:23:21;4.35;;;2.70;;
13079;SDS011;6606;49.154;9.280;2023-04-24T13:26:05;3.70;;;2.40;;
13079;SDS011;6606;49.154;9.280;2023-04-24T13:28:48;3.17;;;2.53;;
13079;SDS011;6606;49.154;9.280;2023-04-24T13:31:30;3.00;;;2.70;;
13079;SDS011;6606;49.154;9.280;2023-04-24T13:34:12;3.60;;;2.77;;
13079;SDS011;6606;49.154;9.280;2023-04-24T13:36:55;4.80;;;2.80;;
13079;SDS011;6606;49.154;9.280;2023-04-24T13:39:38;3.63;;;2.50;;
13079;SDS011;6606;49.154;9.280;2023-04-24T13:42:22;4.20;;;2.70;;
13079;SDS011;6606;49.154;9.280;2023-04-24T13:45:04;6.57;;;2.83;;
13079;SDS011;6606;49.154;9.280;2023-04-24T13:47:47;3.73;;;2.60;;
13079;SDS011;6606;49.154;9.280;2023-04-24T13:50:29;3.80;;;2.90;;
13079;SDS011;6606;49.154;9.280;2023-04-24T13:53:10;2.70;;;2.50;;
13079;SDS011;6606;49.154;9.280;2023-04-24T13:55:52;4.00;;;2.53;;
13079;SDS011;6606;49.154;9.280;2023-04-24T13:58:36;4.23;;;2.67;;
13079;SDS011;6606;49.154;9.280;2023-04-24T14:01:18;3.53;;;2.70;;
13079;SDS011;6606;49.154;9.280;2023-04-24T14:04:00;3.27;;;2.60;;
13079;SDS011;6606;49.154;9.280;2023-04-24T14:06:43;3.90;;;2.43;;
13079;SDS011;6606;49.154;9.280;2023-04-24T14:09:24;4.70;;;2.40;;
13079;SDS011;6606;49.154;9.280;2023-04-24T14:12:06;4.67;;;2.63;;
13079;SDS011;6606;49.154;9.280;2023-04-24T14:14:54;4.30;;;3.10;;
13079;SDS011;6606;49.154;9.280;2023-04-24T14:17:36;5.13;;;2.77;;
13079;SDS011;6606;49.154;9.280;2023-04-24T14:20:17;4.60;;;2.47;;
13079;SDS011;6606;49.154;9.280;2023-04-24T14:23:11;6.00;;;2.77;;
13079;SDS011;6606;49.154;9.280;2023-04-24T14:25:53;4.00;;;2.70;;
13079;SDS011;6606;49.154;9.280;2023-04-24T14:28:35;2.77;;;2.20;;
13079;SDS011;6606;49.154;9.280;2023-04-24T14:31:18;3.08;;;2.30;;
13079;SDS011;6606;49.154;9.280;2023-04-24T14:34:00;4.25;;;2.22;;
13079;SDS011;6606;49.154;9.280;2023-04-24T14:36:41;6.33;;;2.23;;
13079;SDS011;6606;49.154;9.280;2023-04-24T14:39:23;3.37;;;2.40;;
13079;SDS011;6606;49.154;9.280;2023-04-24T14:42:05;3.23;;;2.27;;
13079;SDS011;6606;49.154;9.280;2023-04-24T14:44:47;7.07;;;2.40;;
13079;SDS011;6606;49.154;9.280;2023-04-24T14:47:30;2.53;;;2.00;;
13079;SDS011;6606;49.154;9.280;2023-04-24T14:50:12;4.73;;;2.47;;
13079;SDS011;6606;49.154;9.280;2023-04-24T14:52:54;3.73;;;2.40;;
13079;SDS011;6606;49.154;9.280;2023-04-24T14:55:37;3.90;;;2.70;;
13079;SDS011;6606;49.154;9.280;2023-04-24T14:58:19;3.93;;;2.57;;
13079;SDS011;6606;49.154;9.280;2023-04-24T15:01:01;3.03;;;2.37;;
13079;SDS011;6606;49.154;9.280;2023-04-24T15:03:44;2.97;;;2.20;;
13079;SDS011;6606;49.154;9.280;2023-04-24T15:06:26;4.23;;;2.80;;
13079;SDS011;6606;49.154;9.280;2023-04-24T15:09:08;2.40;;;2.20;;
13079;SDS011;6606;49.154;9.280;2023-04-24T15:11:50;4.23;;;2.47;;
13079;SDS011;6606;49.154;9.280;2023-04-24T15:14:32;2.77;;;2.10;;
13079;SDS011;6606;49.154;9.280;2023-04-24T15:17:13;3.47;;;2.47;;
13079;SDS011;6606;49.154;9.280;2023-04-24T15:19:57;3.20;;;2.40;;
13079;SDS011;6606;49.154;9.280;2023-04-24T15:22:38;4.43;;;2.60;;
13079;SDS011;6606;49.154;9.280;2023-04-24T15:25:20;3.73;;;2.73;;
13079;SDS011;6606;49.154;9.280;2023-04-24T15:28:02;4.27;;;2.63;;
13079;SDS011;6606;49.154;9.280;2023-04-24T15:30:44;2.67;;;2.47;;
13079;SDS011;6606;49.154;9.280;2023-04-24T15:33:26;4.83;;;2.50;;
13079;SDS011;6606;49.154;9.280;2023-04-24T15:36:09;2.83;;;2.43;;
13079;SDS011;6606;49.154;9.280;2023-04-24T15:38:51;3.27;;;2.07;;
13079;SDS011;6606;49.154;9.280;2023-04-24T15:41:35;3.10;;;2.50;;
13079;SDS011;6606;49.154;9.280;2023-04-24T15:44:17;3.57;;;2.70;;
13079;SDS011;6606;49.154;9.280;2023-04-24T15:47:00;3.40;;;2.57;;
13079;SDS011;6606;49.154;9.280;2023-04-24T15:49:42;4.90;;;2.67;;
13079;SDS011;6606;49.154;9.280;2023-04-24T15:52:27;5.53;;;2.67;;
13079;SDS011;6606;49.154;9.280;2023-04-24T15:55:09;3.10;;;2.30;;
13079;SDS011;6606;49.154;9.280;2023-04-24T15:57:51;3.27;;;2.00;;
13079;SDS011;6606;49.154;9.280;2023-04-24T16:00:33;2.97;;;1.80;;
13079;SDS011;6606;49.154;9.280;2023-04-24T16:03:16;4.20;;;2.17;;
13079;SDS011;6606;49.154;9.280;2023-04-24T16:05:58;2.83;;;2.17;;
13079;SDS011;6606;49.154;9.280;2023-04-24T16:08:41;4.10;;;2.43;;
13079;SDS011;6606;49.154;9.280;2023-04-24T16:11:23;3.57;;;2.30;;
13079;SDS011;6606;49.154;9.280;2023-04-24T16:14:05;3.67;;;2.37;;
13079;SDS011;6606;49.154;9.280;2023-04-24T16:16:47;3.13;;;2.10;;
13079;SDS011;6606;49.154;9.280;2023-04-24T16:19:31;4.33;;;2.40;;
13079;SDS011;6606;49.154;9.280;2023-04-24T16:22:14;2.50;;;2.10;;
13079;SDS011;6606;49.154;9.280;2023-04-24T16:24:57;3.23;;;2.43;;
13079;SDS011;6606;49.154;9.280;2023-04-24T16:27:39;3.13;;;2.23;;
13079;SDS011;6606;49.154;9.280;2023-04-24T16:30:21;3.80;;;2.10;;
13079;SDS011;6606;49.154;9.280;2023-04-24T16:33:03;4.37;;;2.57;;
13079;SDS011;6606;49.154;9.280;2023-04-24T16:35:46;7.67;;;2.90;;
13079;SDS011;6606;49.154;9.280;2023-04-24T16:38:28;4.23;;;3.10;;
13079;SDS011;6606;49.154;9.280;2023-04-24T16:41:11;3.57;;;2.57;;
13079;SDS011;6606;49.154;9.280;2023-04-24T16:43:57;3.23;;;2.70;;
13079;SDS011;6606;49.154;9.280;2023-04-24T16:46:39;3.70;;;3.07;;
13079;SDS011;6606;49.154;9.280;2023-04-24T16:49:21;3.30;;;3.00;;
13079;SDS011;6606;49.154;9.280;2023-04-24T16:52:03;3.17;;;2.70;;